Time;durP1;ratioP1;P1;durP2;ratioP2;P2;SDS_P1;SDS_P2;PMS_P1;PMS_P2;Temp;Humidity;BMP_temperature;BMP_pressure;BME280_temperature;BME280_humidity;BME280_pressure;Samples;Min_cycle;Max_cycle;Signal;HPM_P1;HPM_P2
2022/05/21 00:02:11;;;;;;;4.93;1.88;;;;;;;13.09;52.99;95871.44;5087467;28;20034;-83
2022/05/21 00:04:37;;;;;;;9.55;2.38;;;;;;;13.12;52.99;95869.41;5087942;28;20032;-83
2022/05/21 00:07:03;;;;;;;6.05;1.73;;;;;;;13.02;53.31;95872.34;5086576;28;20115;-82
2022/05/21 00:09:29;;;;;;;6.22;2.35;;;;;;;13.00;53.20;95877.91;5087130;28;20085;-82
2022/05/21 00:11:54;;;;;;;6.00;1.80;;;;;;;13.00;52.77;95859.06;5087102;28;20028;-85
2022/05/21 00:14:20;;;;;;;6.45;2.13;;;;;;;12.95;52.89;95872.22;5085353;28;20024;-82
2022/05/21 00:16:46;;;;;;;3.33;1.70;;;;;;;12.92;52.92;95876.13;5088287;28;20016;-83
2022/05/21 00:19:12;;;;;;;5.13;1.90;;;;;;;12.92;52.83;95869.91;5085930;28;20073;-81
2022/05/21 00:21:37;;;;;;;5.47;1.65;;;;;;;12.82;53.92;95865.63;5052944;28;20028;-82
2022/05/21 00:24:03;;;;;;;4.07;2.03;;;;;;;12.63;54.47;95864.25;5086147;28;20024;-82
2022/05/21 00:26:28;;;;;;;3.22;1.83;;;;;;;12.51;55.07;95861.13;5087275;28;20023;-83
2022/05/21 00:28:54;;;;;;;3.72;2.10;;;;;;;12.53;54.13;95860.94;5086730;28;20035;-82
2022/05/21 00:31:19;;;;;;;4.32;2.47;;;;;;;12.55;53.21;95851.69;5086133;28;20031;-82
2022/05/21 00:33:45;;;;;;;6.78;2.25;;;;;;;12.52;52.64;95856.59;5070001;28;20027;-84
2022/05/21 00:36:11;;;;;;;4.43;2.08;;;;;;;12.54;52.77;95857.25;5085422;28;20464;-82
2022/05/21 00:38:36;;;;;;;8.43;2.33;;;;;;;12.52;53.72;95851.22;5069569;28;20038;-81
2022/05/21 00:41:02;;;;;;;6.20;2.28;;;;;;;12.47;52.75;95857.97;5068723;28;20031;-82
2022/05/21 00:43:46;;;;;;;4.55;2.30;;;;;;;12.43;53.13;95850.44;5087022;28;20154;-84
2022/05/21 00:46:20;;;;;;;6.57;2.25;;;;;;;12.28;52.35;95842.28;5087573;28;20052;-84
2022/05/21 00:49:14;;;;;;;4.70;2.13;;;;;;;12.21;52.96;95852.91;5086314;28;20028;-83
2022/05/21 00:52:04;;;;;;;5.22;2.63;;;;;;;12.13;53.41;95845.72;5085940;28;20061;-82
2022/05/21 00:54:36;;;;;;;7.82;2.30;;;;;;;12.08;53.65;95840.88;5087038;28;20024;-84
2022/05/21 00:57:05;;;;;;;5.13;2.10;;;;;;;12.05;54.31;95843.06;5085042;28;20110;-82
2022/05/21 00:59:48;;;;;;;5.05;2.70;;;;;;;11.93;54.88;95840.75;5087421;28;20024;-83
2022/05/21 01:02:28;;;;;;;5.68;2.40;;;;;;;11.95;53.95;95843.25;5085314;28;20095;-82
2022/05/21 01:04:56;;;;;;;5.80;2.45;;;;;;;11.96;53.43;95829.66;5085818;28;20065;-84
2022/05/21 01:07:22;;;;;;;4.50;2.33;;;;;;;11.92;52.89;95822.97;5068613;28;20486;-84
2022/05/21 01:09:50;;;;;;;5.15;1.92;;;;;;;11.87;52.63;95828.00;5068281;28;20491;-82
2022/05/21 01:12:16;;;;;;;5.88;2.15;;;;;;;11.77;52.53;95822.84;5085868;28;20414;-84
2022/05/21 01:14:41;;;;;;;7.70;2.50;;;;;;;11.69;53.12;95834.47;5084163;28;20031;-82
2022/05/21 01:17:07;;;;;;;3.95;2.20;;;;;;;11.63;53.32;95829.81;5069041;28;20032;-84
2022/05/21 01:19:35;;;;;;;4.00;2.00;;;;;;;11.55;53.47;95833.34;5084625;28;20017;-81
2022/05/21 01:22:00;;;;;;;4.03;1.90;;;;;;;11.49;53.90;95834.88;5068892;28;20426;-82
2022/05/21 01:24:25;;;;;;;5.97;2.05;;;;;;;11.44;54.28;95836.41;5086100;28;20418;-84
2022/05/21 01:26:51;;;;;;;4.30;2.05;;;;;;;11.37;54.80;95830.88;5086284;28;20035;-82
2022/05/21 01:29:19;;;;;;;6.00;2.10;;;;;;;11.36;55.05;95842.66;5085422;28;20031;-84
2022/05/21 01:31:52;;;;;;;6.38;2.03;;;;;;;11.30;54.54;95833.41;5067406;28;20028;-82
2022/05/21 01:34:17;;;;;;;8.75;2.30;;;;;;;11.24;53.91;95832.28;5069079;28;20043;-82
2022/05/21 01:36:43;;;;;;;4.07;2.22;;;;;;;11.22;53.96;95833.47;5085503;28;20028;-82
2022/05/21 01:39:08;;;;;;;3.72;2.10;;;;;;;11.18;54.29;95837.47;5087004;28;20052;-82
2022/05/21 01:41:33;;;;;;;5.32;2.38;;;;;;;11.09;54.52;95834.81;5084199;28;20031;-83
2022/05/21 01:46:43;;;;;;;4.55;2.13;;;;;;;11.02;55.38;95828.47;5085865;28;20101;-83
2022/05/21 01:49:08;;;;;;;3.13;2.00;;;;;;;11.00;55.50;95825.94;5067063;28;20028;-82
2022/05/21 01:51:34;;;;;;;3.78;2.40;;;;;;;10.90;55.49;95827.94;5086824;28;20032;-83
2022/05/21 01:53:59;;;;;;;5.35;2.20;;;;;;;10.84;55.80;95825.94;5085371;28;20028;-83
2022/05/21 01:56:25;;;;;;;3.53;2.03;;;;;;;10.86;55.40;95822.09;5085189;28;20032;-83
2022/05/21 01:58:50;;;;;;;4.95;2.53;;;;;;;10.78;55.51;95819.44;5085570;28;20028;-82
2022/05/21 02:01:15;;;;;;;10.15;2.35;;;;;;;10.77;56.34;95819.59;5085973;28;20028;-83
2022/05/21 02:03:41;;;;;;;4.75;2.70;;;;;;;10.74;56.77;95818.06;5067745;28;20040;-83
2022/05/21 02:06:07;;;;;;;7.47;2.83;;;;;;;10.78;56.04;95813.22;5084350;28;20442;-84
2022/05/21 02:08:32;;;;;;;4.32;2.08;;;;;;;10.79;55.46;95820.25;5085362;28;20103;-83
2022/05/21 02:10:57;;;;;;;4.93;2.22;;;;;;;10.75;55.33;95815.22;5084722;28;20024;-81
2022/05/21 02:13:25;;;;;;;6.65;2.42;;;;;;;10.74;55.21;95808.19;5086551;28;20115;-82
2022/05/21 02:15:50;;;;;;;4.45;2.35;;;;;;;10.71;55.70;95807.69;5083846;28;20032;-82
2022/05/21 02:18:16;;;;;;;4.15;2.20;;;;;;;10.63;55.68;95808.53;5085292;28;20031;-83
2022/05/21 02:20:41;;;;;;;6.78;2.15;;;;;;;10.66;55.11;95802.81;5084071;28;20024;-81
2022/05/21 02:23:07;;;;;;;7.13;2.22;;;;;;;10.65;55.60;95811.88;5084468;28;20047;-82
2022/05/21 02:25:33;;;;;;;4.72;2.40;;;;;;;10.57;56.50;95815.41;5085984;28;20028;-85
2022/05/21 02:27:58;;;;;;;4.93;2.55;;;;;;;10.54;55.90;95820.25;5085046;28;20081;-83
2022/05/21 02:30:23;;;;;;;6.80;2.25;;;;;;;10.54;55.30;95820.25;5086626;28;20020;-82
2022/05/21 02:32:49;;;;;;;5.50;2.42;;;;;;;10.48;55.37;95811.88;5084727;28;20020;-83
2022/05/21 02:35:15;;;;;;;7.28;2.50;;;;;;;10.39;56.01;95810.16;5086807;28;20035;-82
2022/05/21 02:40:24;;;;;;;8.82;3.60;;;;;;;10.24;56.95;95804.63;5084847;28;20034;-83
2022/05/21 02:42:50;;;;;;;5.30;2.50;;;;;;;10.20;56.75;95803.28;5084429;28;20016;-82
2022/05/21 02:45:20;;;;;;;7.85;2.45;;;;;;;10.14;56.41;95799.41;5085425;28;20032;-82
2022/05/21 02:47:45;;;;;;;7.72;2.20;;;;;;;10.09;56.54;95799.91;5085269;28;20024;-83
2022/05/21 02:50:12;;;;;;;5.20;2.22;;;;;;;10.01;56.98;95799.91;5066706;28;20043;-82
2022/05/21 02:52:37;;;;;;;5.53;2.13;;;;;;;9.94;57.01;95805.09;5085160;28;20193;-82
2022/05/21 02:55:04;;;;;;;4.03;1.73;;;;;;;10.00;56.63;95804.41;5083906;28;20043;-82
2022/05/21 02:57:29;;;;;;;6.22;2.30;;;;;;;9.98;56.40;95806.41;5084623;28;20034;-82
2022/05/21 02:59:55;;;;;;;5.22;2.38;;;;;;;10.01;56.90;95813.31;5088251;28;20024;-82
2022/05/21 03:02:20;;;;;;;3.42;2.13;;;;;;;10.09;56.67;95817.84;5089205;28;20385;-82
2022/05/21 03:04:46;;;;;;;5.63;3.38;;;;;;;10.12;56.61;95825.56;5089739;28;20081;-83
2022/05/21 03:07:11;;;;;;;4.43;2.28;;;;;;;10.15;56.48;95822.53;5069864;28;20023;-81
2022/05/21 03:12:20;;;;;;;4.22;2.13;;;;;;;10.15;56.78;95817.19;5087432;28;20031;-84
2022/05/21 03:14:46;;;;;;;4.35;2.50;;;;;;;10.11;57.46;95819.34;5087780;28;20020;-82
2022/05/21 03:17:12;;;;;;;6.53;2.20;;;;;;;10.07;57.91;95814.47;5070284;28;20470;-82
2022/05/21 03:19:37;;;;;;;5.75;2.50;;;;;;;10.09;57.54;95817.84;5088879;28;20024;-83
2022/05/21 03:22:03;;;;;;;4.82;2.25;;;;;;;10.07;57.61;95814.47;5088956;28;20061;-83
2022/05/21 03:24:28;;;;;;;7.60;2.40;;;;;;;10.10;57.36;95806.09;5088038;28;20032;-82
2022/05/21 03:26:54;;;;;;;3.50;2.15;;;;;;;10.14;57.33;95807.44;5088144;28;20438;-83
2022/05/21 03:29:20;;;;;;;5.40;2.15;;;;;;;10.20;57.12;95814.84;5087832;28;20479;-82
2022/05/21 03:31:45;;;;;;;5.15;2.53;;;;;;;10.26;57.28;95808.81;5088920;28;20046;-82
2022/05/21 03:34:11;;;;;;;6.22;2.88;;;;;;;10.20;57.50;95814.00;5086508;28;20020;-82
2022/05/21 03:36:36;;;;;;;5.40;2.83;;;;;;;10.20;58.10;95809.50;5087567;28;20031;-83
2022/05/21 03:39:02;;;;;;;7.63;3.00;;;;;;;10.23;57.43;95819.88;5086916;28;20032;-83
2022/05/21 03:41:27;;;;;;;7.00;2.50;;;;;;;10.16;58.17;95818.84;5070205;28;20024;-83
2022/05/21 03:43:55;;;;;;;4.80;2.47;;;;;;;10.14;58.54;95818.16;5088945;28;20016;-83
2022/05/21 03:46:20;;;;;;;4.55;2.40;;;;;;;10.14;57.10;95829.72;5085961;28;20517;-82
2022/05/21 03:48:46;;;;;;;6.60;3.38;;;;;;;10.11;57.18;95827.38;5088897;28;20020;-82
2022/05/21 03:51:11;;;;;;;8.25;2.75;;;;;;;10.13;56.99;95829.91;5087218;28;20016;-83
2022/05/21 03:53:37;;;;;;;6.45;2.50;;;;;;;10.07;57.12;95827.88;5088582;28;20038;-82
2022/05/21 03:56:03;;;;;;;5.15;2.58;;;;;;;10.07;57.53;95823.38;5087778;28;20028;-82
2022/05/21 03:58:28;;;;;;;7.47;2.78;;;;;;;10.13;57.13;95835.25;5088167;28;20088;-82
2022/05/21 04:00:54;;;;;;;12.43;3.28;;;;;;;10.20;56.55;95836.28;5086806;28;20486;-84
2022/05/21 04:03:19;;;;;;;6.03;3.05;;;;;;;10.20;57.31;95836.28;5087293;28;20020;-82
2022/05/21 04:05:45;;;;;;;7.07;3.22;;;;;;;10.22;57.16;95839.63;5070344;28;20020;-81
2022/05/21 04:08:10;;;;;;;6.18;2.95;;;;;;;10.30;56.62;95840.66;5085656;28;20058;-83
2022/05/21 04:10:35;;;;;;;6.25;2.65;;;;;;;10.34;57.04;95842.84;5086683;28;20027;-82
2022/05/21 04:13:01;;;;;;;4.97;3.00;;;;;;;10.53;56.99;95845.41;5087409;28;20050;-81
2022/05/21 04:15:26;;;;;;;6.43;2.75;;;;;;;10.58;57.18;95845.72;5087838;28;20020;-82
2022/05/21 04:17:53;;;;;;;7.18;3.00;;;;;;;10.83;56.61;95846.56;5087782;28;20031;-82
2022/05/21 04:20:20;;;;;;;14.65;3.25;;;;;;;11.11;56.50;95843.53;5086272;28;20402;-84
2022/05/21 04:22:45;;;;;;;8.52;2.72;;;;;;;11.42;56.22;95847.34;5086804;28;20107;-84
2022/05/21 04:25:11;;;;;;;7.18;3.20;;;;;;;11.68;55.57;95845.41;5087070;28;20028;-82
2022/05/21 04:27:38;;;;;;;6.10;2.83;;;;;;;11.88;54.64;95840.47;5088276;28;20448;-83
2022/05/21 04:30:04;;;;;;;9.10;3.22;;;;;;;12.26;53.73;95849.69;5068825;28;20028;-83
2022/05/21 04:32:29;;;;;;;6.65;2.78;;;;;;;12.36;53.04;95847.63;5086574;28;20103;-82
2022/05/21 04:34:55;;;;;;;7.85;2.97;;;;;;;12.60;51.98;95838.53;5068884;28;20020;-83
2022/05/21 04:37:21;;;;;;;6.63;3.05;;;;;;;12.76;51.58;95846.66;5085935;28;20031;-83
2022/05/21 04:39:46;;;;;;;4.80;2.63;;;;;;;12.91;50.79;95846.72;5087246;28;20028;-83
2022/05/21 04:42:12;;;;;;;14.05;2.55;;;;;;;13.08;50.24;95836.63;5086019;28;20468;-83
2022/05/21 04:44:37;;;;;;;8.57;2.83;;;;;;;13.18;49.79;95845.28;5087742;28;20028;-83
2022/05/21 04:47:03;;;;;;;8.73;3.08;;;;;;;13.29;49.25;95840.44;5086170;28;20043;-85
2022/05/21 04:49:29;;;;;;;5.70;2.65;;;;;;;13.46;48.95;95841.94;5069372;28;20115;-83
2022/05/21 04:51:55;;;;;;;9.35;3.95;;;;;;;13.02;49.88;95838.19;5085347;28;19961;-81
2022/05/21 04:54:20;;;;;;;6.13;2.95;;;;;;;13.06;49.75;95844.03;5090524;28;20028;-83
2022/05/21 04:56:45;;;;;;;9.52;3.05;;;;;;;13.33;49.54;95844.47;5086377;28;20024;-82
2022/05/21 04:59:11;;;;;;;7.55;2.63;;;;;;;13.59;48.72;95845.88;5087257;28;20028;-82
2022/05/21 05:01:37;;;;;;;6.65;2.70;;;;;;;13.88;48.41;95836.09;5086795;28;20402;-82
2022/05/21 05:04:03;;;;;;;7.80;3.10;;;;;;;13.97;47.95;95842.25;5086394;28;20020;-82
2022/05/21 05:06:29;;;;;;;6.63;2.72;;;;;;;14.27;47.95;95849.41;5087094;28;20520;-83
2022/05/21 05:08:54;;;;;;;8.82;2.78;;;;;;;14.55;47.55;95846.84;5085903;28;20024;-82
2022/05/21 05:11:19;;;;;;;15.95;3.25;;;;;;;14.72;47.12;95846.56;5087014;28;20039;-82
2022/05/21 05:13:45;;;;;;;10.93;3.08;;;;;;;14.93;47.19;95851.16;5085972;28;20031;-81
2022/05/21 05:16:10;;;;;;;8.27;2.38;;;;;;;15.02;46.46;95848.34;5087137;28;20023;-81
2022/05/21 05:18:36;;;;;;;5.63;2.58;;;;;;;15.33;44.66;95841.72;5086205;28;20020;-83
2022/05/21 05:21:02;;;;;;;10.90;3.75;;;;;;;15.63;43.68;95846.91;5085924;28;20016;-83
2022/05/21 05:23:27;;;;;;;12.60;3.25;;;;;;;15.36;43.75;95852.13;5085543;28;20032;-81
2022/05/21 05:25:53;;;;;;;6.15;2.60;;;;;;;15.17;44.87;95843.66;5085370;28;20044;-82
2022/05/21 05:28:20;;;;;;;10.50;2.95;;;;;;;15.49;45.53;95853.25;5087440;28;20035;-82
2022/05/21 05:30:49;;;;;;;5.65;2.50;;;;;;;15.73;44.08;95848.41;5085432;28;20107;-82
2022/05/21 05:33:15;;;;;;;7.60;2.83;;;;;;;15.93;43.61;95845.78;5086604;28;20020;-83
2022/05/21 05:35:41;;;;;;;6.65;2.30;;;;;;;16.12;43.63;95841.53;5085571;28;20028;-81
2022/05/21 05:38:10;;;;;;;6.07;2.92;;;;;;;16.33;42.50;95842.44;5088697;28;20540;-82
2022/05/21 05:40:36;;;;;;;9.85;2.20;;;;;;;16.48;42.44;95834.16;5084836;28;20028;-82
2022/05/21 05:43:03;;;;;;;5.97;2.33;;;;;;;16.68;41.86;95828.78;5085630;28;20534;-82
2022/05/21 05:45:28;;;;;;;8.15;2.72;;;;;;;16.67;42.77;95821.69;5086716;28;20039;-83
2022/05/21 05:47:54;;;;;;;5.35;2.15;;;;;;;16.93;41.82;95824.63;5085140;28;20028;-83
2022/05/21 05:50:19;;;;;;;4.22;2.22;;;;;;;17.14;40.24;95812.78;5086398;28;20044;-82
2022/05/21 05:52:45;;;;;;;4.22;2.13;;;;;;;17.26;39.87;95815.72;5067364;28;20028;-81
2022/05/21 05:55:10;;;;;;;3.60;2.00;;;;;;;17.40;39.59;95813.81;5086198;28;20024;-82
2022/05/21 05:57:36;;;;;;;4.68;2.10;;;;;;;17.22;39.23;95813.63;5084268;28;20476;-82
2022/05/21 06:00:02;;;;;;;5.45;2.20;;;;;;;17.20;39.42;95813.00;5085520;28;20513;-82
2022/05/21 06:05:24;;;;;;;7.18;2.35;;;;;;;17.20;40.90;95804.88;5083986;28;20089;-83
2022/05/21 06:07:52;;;;;;;8.93;2.47;;;;;;;17.22;40.23;95797.38;5086332;28;20460;-82
2022/05/21 06:10:19;;;;;;;5.82;2.25;;;;;;;17.54;40.45;95797.50;5085273;28;20032;-82
2022/05/21 06:12:45;;;;;;;7.07;2.92;;;;;;;17.47;39.57;95794.81;5086087;28;20028;-81
2022/05/21 06:15:11;;;;;;;6.63;1.98;;;;;;;17.49;40.21;95786.47;5085850;28;20031;-82
2022/05/21 06:17:37;;;;;;;10.40;2.53;;;;;;;17.88;39.80;95781.13;5084154;28;20020;-83
2022/05/21 06:20:04;;;;;;;9.82;3.10;;;;;;;18.04;39.32;95783.34;5086342;28;20080;-83
2022/05/21 06:22:29;;;;;;;9.48;2.72;;;;;;;18.31;39.88;95787.00;5084957;28;20035;-83
2022/05/21 06:24:55;;;;;;;12.13;2.60;;;;;;;18.37;39.31;95784.25;5086115;28;20024;-82
2022/05/21 06:27:20;;;;;;;10.35;2.55;;;;;;;18.49;38.59;95778.94;5066874;28;20024;-82
2022/05/21 06:29:47;;;;;;;7.03;2.10;;;;;;;18.57;38.25;95777.03;5085685;28;20031;-82
2022/05/21 06:32:12;;;;;;;5.28;2.25;;;;;;;18.79;37.11;95769.34;5085513;28;20023;-83
2022/05/21 06:34:38;;;;;;;5.40;2.05;;;;;;;19.02;36.40;95762.50;5089461;28;20039;-83
2022/05/21 06:37:04;;;;;;;6.68;2.00;;;;;;;19.19;37.31;95760.06;5089622;28;20406;-82
2022/05/21 06:39:32;;;;;;;9.48;2.20;;;;;;;19.33;37.55;95766.19;5087302;28;20020;-82
2022/05/21 06:41:57;;;;;;;6.20;1.63;;;;;;;19.51;37.22;95767.25;5090008;28;20024;-82
2022/05/21 06:44:23;;;;;;;6.38;2.03;;;;;;;19.48;37.54;95754.94;5087566;28;20405;-82
2022/05/21 06:46:49;;;;;;;6.40;2.53;;;;;;;19.62;36.76;95750.19;5089797;28;20136;-82
2022/05/21 06:49:14;;;;;;;3.28;1.98;;;;;;;19.15;37.29;95747.97;5089025;28;20071;-82
2022/05/21 06:51:40;;;;;;;6.97;2.20;;;;;;;18.99;38.68;95743.91;5089689;28;20032;-84
2022/05/21 06:54:05;;;;;;;5.53;2.05;;;;;;;19.24;37.67;95743.06;5089553;28;20032;-82
2022/05/21 06:56:30;;;;;;;6.18;1.88;;;;;;;19.42;37.78;95735.97;5089387;28;20494;-82
2022/05/21 06:58:56;;;;;;;6.68;2.00;;;;;;;19.21;38.69;95735.34;5089831;28;20027;-83
2022/05/21 07:01:21;;;;;;;5.20;2.00;;;;;;;19.59;38.91;95730.75;5088477;28;20032;-83
2022/05/21 07:03:47;;;;;;;3.75;1.80;;;;;;;19.84;38.14;95722.53;5088578;28;20600;-83
2022/05/21 07:08:56;;;;;;;2.78;1.50;;;;;;;20.19;35.82;95717.47;5089236;28;20087;-83
2022/05/21 07:11:22;;;;;;;4.15;2.00;;;;;;;20.13;36.34;95705.63;5088789;28;20032;-82
2022/05/21 07:13:47;;;;;;;5.72;1.50;;;;;;;20.33;36.09;95708.03;5088639;28;20475;-83
2022/05/21 07:16:13;;;;;;;5.40;1.90;;;;;;;20.45;34.26;95707.25;5089455;28;20395;-83
2022/05/21 07:18:38;;;;;;;3.65;1.70;;;;;;;20.12;35.45;95704.78;5070018;28;20036;-83
2022/05/21 07:21:04;;;;;;;4.97;1.85;;;;;;;19.68;36.13;95707.66;5089337;28;20020;-83
2022/05/21 07:23:29;;;;;;;6.22;1.90;;;;;;;19.79;35.66;95699.75;5087862;28;20410;-82
2022/05/21 07:25:57;;;;;;;4.80;1.80;;;;;;;19.66;36.65;95706.19;5089053;28;20024;-82
2022/05/21 07:28:24;;;;;;;3.45;1.70;;;;;;;19.95;36.13;95706.47;5086846;28;20024;-86
2022/05/21 07:30:51;;;;;;;8.30;2.08;;;;;;;20.13;36.63;95701.00;5088581;28;20064;-83
2022/05/21 07:33:18;;;;;;;4.40;1.88;;;;;;;20.35;35.58;95699.63;5087164;28;20020;-83
2022/05/21 07:35:43;;;;;;;4.18;1.70;;;;;;;20.58;34.74;95698.03;5087877;28;20099;-82
2022/05/21 07:38:09;;;;;;;5.82;1.70;;;;;;;20.71;34.17;95694.28;5088857;28;20099;-82
2022/05/21 07:40:36;;;;;;;5.95;1.70;;;;;;;20.82;32.76;95688.00;5086236;28;20547;-87
2022/05/21 07:43:27;;;;;;;8.15;1.88;;;;;;;21.03;32.63;95682.22;5070315;28;20032;-83
2022/05/21 07:45:55;;;;;;;6.30;3.17;;;;;;;21.16;33.60;95687.44;5077740;28;20101;-82
2022/05/21 07:48:21;;;;;;;7.18;1.70;;;;;;;21.33;34.31;95692.97;5086417;28;20024;-82
2022/05/21 07:50:57;;;;;;;5.45;1.65;;;;;;;21.53;33.44;95680.00;5088500;28;20693;-83
2022/05/21 07:53:33;;;;;;;5.03;2.00;;;;;;;21.47;33.68;95677.16;5086843;28;20463;-81
2022/05/21 07:55:59;;;;;;;5.68;1.80;;;;;;;21.45;34.29;95667.59;5086949;28;20024;-82
2022/05/21 07:58:26;;;;;;;10.35;2.03;;;;;;;21.53;33.69;95669.09;5086342;28;20070;-82
2022/05/21 08:00:52;;;;;;;3.78;1.70;;;;;;;21.63;33.25;95657.56;5087991;28;20028;-82
2022/05/21 08:03:17;;;;;;;5.22;2.00;;;;;;;21.63;34.11;95657.56;5087552;28;20379;-82
2022/05/21 08:05:43;;;;;;;8.80;1.80;;;;;;;21.02;34.54;95651.41;5086116;28;20030;-82
2022/05/21 08:08:08;;;;;;;6.65;2.00;;;;;;;20.88;36.09;95651.63;5088302;28;20056;-82
2022/05/21 08:10:35;;;;;;;7.57;2.28;;;;;;;21.11;35.95;95646.41;5086975;28;20028;-83
2022/05/21 08:13:00;;;;;;;5.43;1.90;;;;;;;21.24;34.77;95640.72;5087558;28;20028;-83
2022/05/21 08:15:26;;;;;;;5.18;1.88;;;;;;;21.44;34.97;95644.09;5087122;28;20043;-83
2022/05/21 08:17:52;;;;;;;7.15;1.95;;;;;;;21.47;34.92;95632.72;5088312;28;20113;-82
2022/05/21 08:20:17;;;;;;;19.50;3.70;;;;;;;21.52;34.69;95629.25;5086077;28;20414;-83
2022/05/21 08:28:13;;;;;;;6.75;2.22;;;;;;;22.25;34.57;95633.34;5087300;28;20512;-82
2022/05/21 08:30:42;;;;;;;14.65;2.38;;;;;;;22.10;34.57;95634.75;5086170;28;20471;-83
2022/05/21 08:33:08;;;;;;;4.28;2.05;;;;;;;22.05;33.92;95631.91;5087201;28;20044;-82
2022/05/21 08:35:33;;;;;;;9.73;2.00;;;;;;;22.08;34.33;95621.34;5086013;28;20032;-83
2022/05/21 08:37:59;;;;;;;14.85;2.20;;;;;;;22.37;33.50;95628.63;5087306;28;20043;-84
2022/05/21 08:40:55;;;;;;;8.23;2.95;;;;;;;22.58;33.48;95628.97;5068408;28;20091;-83
2022/05/21 08:43:22;;;;;;;6.07;1.85;;;;;;;22.78;33.90;95628.47;5087623;28;20077;-82
2022/05/21 08:46:03;;;;;;;9.13;1.90;;;;;;;22.99;32.88;95628.78;5084954;28;20379;-81
2022/05/21 08:48:29;;;;;;;4.95;2.00;;;;;;;23.24;33.93;95612.97;5086946;28;20668;-82
2022/05/21 08:50:54;;;;;;;10.48;2.00;;;;;;;23.28;32.52;95620.41;5085771;28;20027;-82
2022/05/21 08:53:22;;;;;;;3.58;1.90;;;;;;;23.37;31.81;95606.28;5085177;28;20480;-82
2022/05/21 08:55:50;;;;;;;6.85;2.00;;;;;;;23.53;33.18;95604.59;5068732;28;20032;-84
2022/05/21 08:58:37;;;;;;;7.72;2.13;;;;;;;23.76;32.20;95611.72;5084493;28;20032;-82
2022/05/21 09:01:03;;;;;;;6.88;1.95;;;;;;;23.79;30.59;95602.16;5087017;28;20108;-84
2022/05/21 09:03:28;;;;;;;7.10;1.80;;;;;;;23.90;32.28;95601.19;5086451;28;20024;-83
2022/05/21 09:06:18;;;;;;;4.85;1.83;;;;;;;23.86;33.41;95601.94;5086634;28;20056;-82
2022/05/21 09:09:11;;;;;;;4.80;1.67;;;;;;;23.93;31.59;95603.41;5087340;28;20028;-84
2022/05/21 09:12:01;;;;;;;5.63;2.22;;;;;;;24.12;31.76;95607.69;5085796;28;20122;-82
2022/05/21 09:14:35;;;;;;;7.95;2.20;;;;;;;24.28;30.87;95598.53;5086831;28;20030;-83
2022/05/21 09:17:00;;;;;;;5.50;2.78;;;;;;;24.29;29.94;95591.16;5085624;28;20024;-84
2022/05/21 09:19:43;;;;;;;4.28;1.67;;;;;;;24.48;29.99;95593.47;5085989;28;20020;-83
2022/05/21 09:22:10;;;;;;;;;;;;;;;24.62;29.46;95591.94;5086609;28;20024;-82
2022/05/21 09:24:55;;;;;;;4.93;1.70;;;;;;;24.60;27.25;95587.81;5085458;28;20318;-84
2022/05/21 09:27:34;;;;;;;4.75;2.15;;;;;;;24.66;29.17;95595.81;5068843;28;20028;-85
2022/05/21 09:30:20;;;;;;;5.88;2.25;;;;;;;24.82;29.59;95590.44;5086435;28;20566;-81
2022/05/21 09:32:48;;;;;;;5.20;1.65;;;;;;;24.92;27.12;95586.97;5085544;28;20035;-82
2022/05/21 09:35:17;;;;;;;3.40;1.50;;;;;;;25.03;26.99;95590.59;5086115;28;20115;-83
2022/05/21 09:37:43;;;;;;;3.97;1.55;;;;;;;25.06;26.02;95585.41;5085618;28;20028;-82
2022/05/21 09:40:22;;;;;;;7.22;1.63;;;;;;;25.13;26.51;95585.16;5086883;28;20024;-82
2022/05/21 09:45:32;;;;;;;3.78;1.40;;;;;;;25.12;27.74;95571.69;5084359;28;20078;-82
2022/05/21 09:48:04;;;;;;;7.15;1.63;;;;;;;25.18;27.49;95573.38;5085506;28;20020;-82
2022/05/21 09:50:30;;;;;;;5.72;1.80;;;;;;;25.22;27.63;95563.50;5085430;28;20529;-82
2022/05/21 09:52:55;;;;;;;4.60;1.70;;;;;;;25.28;27.00;95562.44;5086566;28;20058;-82
2022/05/21 09:55:28;;;;;;;6.28;1.60;;;;;;;25.34;27.19;95554.22;5086133;28;20016;-82
2022/05/21 09:57:54;;;;;;;5.88;1.85;;;;;;;25.33;26.84;95564.38;5086244;28;20107;-82
2022/05/21 10:00:33;;;;;;;3.72;1.48;;;;;;;25.29;25.92;95555.84;5069539;28;20016;-83
2022/05/21 10:03:01;;;;;;;3.95;1.60;;;;;;;25.33;26.99;95538.88;5085333;28;20078;-81
2022/05/21 10:05:35;;;;;;;3.47;1.50;;;;;;;25.34;26.47;95535.00;5068762;28;20081;-82
2022/05/21 10:11:07;;;;;;;3.15;1.75;;;;;;;25.35;26.76;95525.66;5090246;28;20105;-82
2022/05/21 10:13:47;;;;;;;27.77;2.72;;;;;;;25.40;28.12;95523.78;5089339;28;20024;-83
2022/05/21 10:16:18;;;;;;;5.90;1.80;;;;;;;25.42;27.24;95520.78;5087838;28;20081;-82
2022/05/21 10:18:52;;;;;;;4.73;1.60;;;;;;;25.47;27.37;95512.53;5090753;28;20470;-82
2022/05/21 10:21:28;;;;;;;7.22;1.67;;;;;;;25.53;27.71;95508.72;5071446;28;20668;-81
2022/05/21 10:24:07;;;;;;;3.80;1.73;;;;;;;25.70;28.52;95515.09;5088398;28;20105;-82
2022/05/21 10:26:48;;;;;;;3.42;1.58;;;;;;;25.77;26.89;95512.91;5089538;28;20036;-82
2022/05/21 10:29:13;;;;;;;9.20;2.20;;;;;;;25.78;26.15;95518.13;5089085;28;20028;-81
2022/05/21 10:31:45;;;;;;;6.70;1.60;;;;;;;25.76;26.22;95503.81;5090368;28;20467;-81
2022/05/21 10:34:34;;;;;;;5.13;1.53;;;;;;;25.80;25.83;95501.38;5089411;28;20028;-82
2022/05/21 10:37:29;;;;;;;4.82;1.63;;;;;;;25.84;26.33;95499.72;5088304;28;20043;-83
2022/05/21 10:40:07;;;;;;;4.57;2.00;;;;;;;25.83;26.84;95494.50;5059068;28;20040;-83
2022/05/21 10:43:00;;;;;;;5.93;1.45;;;;;;;25.86;26.57;95499.47;5089044;28;20413;-82
2022/05/21 10:45:40;;;;;;;4.18;1.30;;;;;;;25.92;25.54;95498.38;5088276;28;20421;-82
2022/05/21 10:48:43;;;;;;;4.57;1.35;;;;;;;25.94;26.55;95496.13;5088840;28;20036;-82
2022/05/21 10:51:08;;;;;;;;;;;;;;;25.98;25.55;95474.44;5088977;28;20028;-82
2022/05/21 10:53:40;;;;;;;7.50;1.55;;;;;;;26.01;27.34;95477.47;5089821;28;19972;-82
2022/05/21 10:56:14;;;;;;;9.07;1.90;;;;;;;26.10;25.38;95472.22;5088851;28;20503;-84
2022/05/21 10:58:51;;;;;;;3.15;1.58;;;;;;;26.18;26.13;95470.88;5089225;28;20032;-82
2022/05/21 11:01:29;;;;;;;3.40;1.20;;;;;;;26.20;25.18;95456.88;5088559;28;20032;-83
2022/05/21 11:04:12;;;;;;;3.47;1.30;;;;;;;26.29;25.17;95445.00;5070785;28;20025;-82
2022/05/21 11:06:47;;;;;;;2.95;1.20;;;;;;;26.41;26.64;95441.16;5088060;28;20482;-82
2022/05/21 11:09:22;;;;;;;4.30;1.80;;;;;;;26.54;24.80;95429.59;5088766;28;20035;-82
2022/05/21 11:12:13;;;;;;;5.72;1.35;;;;;;;26.63;24.19;95427.06;5089125;28;20032;-82
2022/05/21 11:15:01;;;;;;;2.35;1.38;;;;;;;26.60;24.37;95419.38;5088636;28;20058;-82
2022/05/21 11:17:32;;;;;;;4.72;1.60;;;;;;;26.62;24.14;95416.34;5088245;28;20989;-82
2022/05/21 11:20:01;;;;;;;4.65;1.50;;;;;;;26.65;25.45;95411.13;5087784;28;20169;-82
2022/05/21 11:22:52;;;;;;;5.95;1.90;;;;;;;26.89;24.94;95412.41;5088414;28;20102;-83
2022/05/21 11:25:23;;;;;;;2.33;1.25;;;;;;;27.02;25.74;95403.56;5049305;28;20043;-82
2022/05/21 11:28:21;;;;;;;7.15;1.83;;;;;;;27.10;23.25;95412.34;5071946;28;20111;-85
2022/05/21 11:30:46;;;;;;;9.38;1.70;;;;;;;27.14;24.99;95402.38;5050179;28;20105;-83
2022/05/21 11:39:06;;;;;;;7.75;1.60;;;;;;;27.37;23.00;95408.31;5045392;28;20055;-84
2022/05/21 11:41:53;;;;;;;4.35;1.40;;;;;;;27.40;26.56;95393.97;5074787;28;20154;-81
2022/05/21 11:47:05;;;;;;;2.72;1.77;;;;;;;27.55;23.25;95389.47;5086413;28;20055;-83
2022/05/21 11:49:35;;;;;;;4.35;1.40;;;;;;;27.61;23.23;95391.06;5088607;28;20031;-84
2022/05/21 11:52:27;;;;;;;8.25;1.48;;;;;;;27.69;25.02;95387.72;5086144;28;20081;-83
2022/05/21 11:55:09;;;;;;;6.35;2.40;;;;;;;27.79;22.57;95391.50;5086979;28;20133;-83
2022/05/21 11:57:45;;;;;;;3.45;1.40;;;;;;;27.88;22.17;95384.25;5088455;28;20024;-84
2022/05/21 12:00:25;;;;;;;2.80;1.40;;;;;;;27.97;24.86;95374.22;5087313;28;20024;-83
2022/05/21 12:02:53;;;;;;;2.63;1.60;;;;;;;27.92;22.75;95366.03;5088232;28;20118;-84
2022/05/21 12:05:37;;;;;;;2.60;1.52;;;;;;;28.02;22.16;95371.44;5087704;28;20028;-83
2022/05/21 12:08:22;;;;;;;2.95;1.50;;;;;;;28.11;23.64;95379.91;5087614;28;20035;-83
2022/05/21 12:11:06;;;;;;;2.28;1.27;;;;;;;28.23;23.60;95373.13;5088528;28;20064;-83
2022/05/21 12:13:34;;;;;;;2.38;1.10;;;;;;;28.32;22.19;95368.69;5085683;28;20505;-83
2022/05/21 12:16:20;;;;;;;3.35;1.35;;;;;;;28.40;22.98;95369.13;5087941;28;20075;-85
2022/05/21 12:18:54;;;;;;;7.07;1.40;;;;;;;28.47;22.55;95364.91;5087614;28;20390;-85